Tiempo atmosférico en la estación meteorológica de Hinojosa Del Duque, Córdoba (540 m.)



Fecha
DESCASC
Temp. máxima en grados centígrados (hora)
DESCASC
Temp. mínima en grados centígrados (hora)
DESCASC
Temp. media en grados centígrados
DESCASC
Racha de viento máxima en m/sg (hora)
DESCASC
Velocidad máxima media en intervalos de 10 minutos(hora)
DESCASC
Precipitaciones diarias en mm
DESCASC
Precipitaciones de 00:00 a 06:00 en mm
DESCASC
Precipitaciones de 06:00 a 12:00 en mm
DESCASC
Precipitaciones de 12:00 a 18:00 en mm
DESCASC
Precipitaciones de 18:00 a 24:00 en mm
DESCASC
18-04-2019 15.6 (18:00) 7.7 (23:10) 11.7 9.17 (15:10) 6.11 (15:10) 0.5 0 0 0.5 0
17-04-2019 20.9 (13:40) 9.2 (08:50) 15 11.11 (17:50) 6.94 (14:50) 0 0 0 0 0
16-04-2019 24 (17:30) 4.6 (00:00) 14.3 7.5 (15:20) 4.72 (19:10) 0 0 0 0 0
15-04-2019 24.5 (15:30) 8.9 (00:00) 16.7 12.5 (18:10) 8.33 (18:10) 0 0 0 0 0
14-04-2019 22.9 (17:40) 9.6 (00:00) 16.3 6.94 (16:20) 3.61 (16:20) 0 0 0 0 0
13-04-2019 21.7 (17:30) 3.9 (00:00) 12.8 7.78 (16:40) 4.44 (17:40) 0 0 0 0 0
12-04-2019 18.7 (17:00) 2.1 (00:00) 10.4 6.39 (15:50) 3.89 (19:50) 0 0 0 0 0
11-04-2019 16.9 (16:10) 2.5 (00:00) 9.7 8.33 (16:50) 4.72 (17:40) 0 0 0 0 0
10-04-2019 15.2 (17:00) 4.9 (00:00) 10 11.11 (16:50) 8.06 (16:50) 0 0 0 0 0
09-04-2019 14.1 (16:20) 3.9 (00:00) 9 13.89 (17:50) 9.17 (17:50) 3 0 0 1.2 1.8
08-04-2019 16.8 (16:20) 6.7 (00:00) 11.7 11.11 (19:00) 7.5 (22:10) 3.4 0.6 2.8 0 0
07-04-2019 -- (--) -- (--) -- -- (--) -- (--) -- -- -- 0.4 0.9
06-04-2019 -- (--) -- (--) -- -- (--) -- (--) -- 0 0.4 5.7 --
05-04-2019 11.3 (17:10) 4.2 (00:00) 7.8 14.17 (17:30) 8.89 (17:20) 7.6 0.8 5.4 0.5 0.9
04-04-2019 17.4 (17:40) 0 (00:00) 8.7 9.44 (18:20) 6.67 (18:20) 0 0 0 0 0
03-04-2019 18.1 (15:30) 5.2 (00:00) 11.7 11.94 (17:00) 8.06 (17:10) 0 0 0 0 0
02-04-2019 19.6 (16:40) 5.9 (00:00) 12.8 6.39 (17:40) 4.17 (19:00) 0 0 0 0 0
01-04-2019 19.1 (16:00) 8.4 (00:00) 13.8 6.67 (19:30) 4.72 (16:20) 0 0 0 0 0
31-03-2019 17.7 (15:30) 9.2 (00:00) 13.5 8.33 (20:10) 5.28 (20:10) 9.3 9.2 0.1 0 0
30-03-2019 21.1 (16:40) 3.5 (00:00) 12.3 9.72 (18:10) 6.11 (18:10) 0.2 0 0 0 0.2
29-03-2019 20 (16:40) -1.1 (-00:0) 9.4 9.44 (16:20) 3.61 (14:20) 0 0 0 0 0
28-03-2019 19.4 (17:00) 0 (00:00) 9.7 10 (15:00) 6.11 (15:50) 0 0 0 0 0
27-03-2019 19.4 (17:10) 1.2 (00:00) 10.3 11.67 (14:30) 6.67 (14:30) 0 0 0 0 0
26-03-2019 23.8 (16:20) 2.2 (00:00) 13 9.72 (20:40) 5.83 (15:10) 0 0 0 0 0
25-03-2019 21.9 (14:40) 2.5 (00:00) 12.2 9.44 (13:30) 5.83 (13:30) 0 0 0 0 0
24-03-2019 19.9 (15:20) 2 (00:00) 10.9 9.17 (14:50) 5.28 (14:50) 0 0 0 0 0
23-03-2019 19.8 (15:50) 1.5 (00:00) 10.6 13.06 (14:10) 7.78 (11:30) 0 0 0 0 0
22-03-2019 18.1 (16:00) -1.5 (-00:0) 8.3 9.17 (14:50) 5 (15:30) 0 0 0 0 0
21-03-2019 16.2 (15:40) -0.2 (00:00) 8 10.28 (12:50) 6.67 (11:30) 0 0 0 0 0

Gráficas

Temp. máximas Temp. mínimas Temp. medias Precipitaciones Rachas de viento máximas Velocidades máximas media en intervalos de 10 minutos

Datos horarios

Fecha y hora oficial Temperatura (ºC) Velocidad del viento (km/h) Dirección del viento Racha (km/h) Dirección de racha Precipitación (mm) Presión (hPa) Tendencia (hPa) Humedad (%)
2019-04-19 23:00:00 7.9 7 Nordeste 13 Este 0 952.7 2 83
2019-04-19 22:00:00 8.7 9 Este 32 Este 0 951.9 2 77
2019-04-19 21:00:00 10.2 14 Este 36 Nordeste 0 951.1 1.4 73
2019-04-19 20:00:00 11.7 24 Nordeste 36 Nordeste 0.1 950.7 0.9 64
2019-04-19 19:00:00 15 15 Este 25 Este 0 949.9 -0.2 49
2019-04-19 18:00:00 16 10 Este 20 Este 0 949.7 -0.2 50
2019-04-19 17:00:00 14.3 10 Sudeste 25 Este 0 949.8 -0.3 62
2019-04-19 16:00:00 12 13 Este 30 Este 0.4 950.1 -0.9 74
2019-04-19 15:00:00 14.9 12 Nordeste 19 Nordeste 0 949.9 -1.2 47
2019-04-19 14:00:00 16.7 3 Sur 20 Noroeste 0 950.1 -0.6 45
2019-04-19 13:00:00 13.9 4 Norte 13 Nordeste 0 951 0.5 56
2019-04-19 12:00:00 12.5 4 Nordeste 13 Nordeste 0 951.1 0.9 58
2019-04-19 11:00:00 12.7 5 Este 12 Sudeste 0 950.7 1.1 61
2019-04-19 10:00:00 9.4 0 Calma 5 Sudeste 0 950.5 1.1 84
2019-04-19 09:00:00 7.1 2 Este 6 Sudeste 0 950.2 1.1 90
2019-04-19 08:00:00 5.4 4 Sur 6 Sur 0 949.6 0.1 90
2019-04-19 07:00:00 6.5 5 Sudeste 7 Sudoeste 0 949.4 0 89
2019-04-19 06:00:00 6.8 3 Sudoeste 6 Sur 0 949.1 -0.3 89
2019-04-19 05:00:00 6.6 4 Sudoeste 8 Sudoeste 0 949.5 -0.1 89
2019-04-19 04:00:00 6.3 5 Sudoeste 8 Sur 0 949.4 -0.5 89
2019-04-19 03:00:00 6.6 5 Sur 10 Oeste 0 949.4 -0.4 88
2019-04-19 02:00:00 7.5 9 Oeste 14 Oeste 0 949.6 -0.1 88
2019-04-19 01:00:00 7.9 4 Noroeste 17 Noroeste 0 949.9 1 83
2019-04-19 00:00:00 8.4 4 Oeste 11 Sur 0 949.8 1.3 79
2019-04-18 23:00:00 7.9 7 Sur 14 Oeste 0 949.7 1.8 76
2019-04-18 22:00:00 9.7 10 Oeste 28 Oeste 0 948.9 1.3 69
2019-04-18 21:00:00 11.9 12 Oeste 23 Oeste 0 948.5 1.3 61
2019-04-18 20:00:00 13.9 14 Noroeste 20 Noroeste 0 947.9 0.6 52
2019-04-18 19:00:00 14.2 17 Noroeste 25 Noroeste 0 947.6 -0.1 53
2019-04-18 18:00:00 15 15 Oeste 26 Noroeste 0 947.2 -0.8 48
2019-04-18 17:00:00 13.9 19 Oeste 27 Oeste 0 947.3 -0.4 60
2019-04-18 16:00:00 11.4 18 Oeste 33 Noroeste 0.5 947.7 -0.4 70
2019-04-18 15:00:00 12.4 20 Oeste 29 Oeste 0 948 -0.8 56
2019-04-18 14:00:00 13.9 10 Noroeste 22 Norte 0 947.7 -1.3 52
2019-04-18 13:00:00 14.6 7 Norte 22 Norte 0 948.1 -0.7 55
2019-04-18 12:00:00 13.8 4 Norte 14 Norte 0 948.8 0.1 59
2019-04-18 11:00:00 13 6 Norte 15 Oeste 0 949 0.4 63
2019-04-18 10:00:00 12.3 9 Oeste 15 Oeste 0 948.8 0.7 69
2019-04-18 09:00:00 10.3 2 Sudoeste 8 Oeste 0 948.7 0.6 76
2019-04-18 08:00:00 9.5 5 Oeste 7 Oeste 0 948.6 0.5 79
2019-04-18 07:00:00 9.1 3 Sudoeste 8 Sur 0 948.1 -0.4 79
2019-04-18 06:00:00 9.1 5 Sudeste 8 Sur 0 948.1 -1 77
2019-04-18 05:00:00 8.9 4 Sur 12 Oeste 0 948.1 -1.5 73
2019-04-18 04:00:00 9.7 5 Sudoeste 10 Sudoeste 0 948.5 -1.2 70
2019-04-18 03:00:00 10.5 8 Sudoeste 16 Oeste 0 949.1 0 65
2019-04-18 02:00:00 11.2 13 Oeste 27 Oeste 0 949.6 0 62
2019-04-18 01:00:00 11.9 16 Oeste 24 Oeste 0 949.7 1 61
2019-04-18 00:00:00 12.2 12 Sudeste 21 Sudeste 0 949.1 1.8 62
2019-04-17 23:00:00 12.5 10 Sudoeste 28 Sudoeste 0 949.6 2.2 62
2019-04-17 22:00:00 12.8 17 Sudoeste 37 Sudoeste 0 948.7 2.1 64
2019-04-17 21:00:00 14.8 17 Sudoeste 29 Sudoeste 0 947.3 1.4 61
2019-04-17 20:00:00 16 17 Sudoeste 33 Sur 0 947.4 1.9 52
2019-04-17 19:00:00 17.2 14 Sudoeste 30 Sudoeste 0 946.6 0.6 50
2019-04-17 18:00:00 17.6 22 Sudoeste 40 Sudoeste 0 945.9 -0.2 45
2019-04-17 17:00:00 19 12 Sudoeste 28 Sudoeste 0 945.5 -1.3 42
2019-04-17 16:00:00 19.7 17 Sudoeste 33 Sur 0 946 -0.9 41
2019-04-17 15:00:00 19.6 21 Sur 40 Sudoeste 0 946.1 -1.1 41
2019-04-17 14:00:00 19.6 19 Sur 32 Sudoeste 0 946.8 -0.4 39
2019-04-17 13:00:00 20 18 Sur 31 Sur 0 946.9 -0.1 38
2019-04-17 12:00:00 19.4 19 Sur 35 Sur 0 947.2 0.3 38
2019-04-17 11:00:00 17.9 17 Sur 28 Sur 0 947.2 0.4 41
2019-04-17 10:00:00 13.7 6 Sudeste 12 Sudeste 0 947 0.1 59
2019-04-17 09:00:00 9.6 8 Este 20 Sudeste 0 946.9 0 69
2019-04-17 08:00:00 11.8 12 Sudeste 23 Sudeste 0 946.8 -0.8 56
2019-04-17 07:00:00 10.2 9 Este 21 Sudeste 0 946.9 -1.6 59
2019-04-17 06:00:00 11.7 14 Sudeste 24 Sudeste 0 946.9 -2.1 57
2019-04-17 05:00:00 9.7 10 Sudeste 19 Sudeste 0 947.6 -1.7 60
2019-04-17 04:00:00 10.7 10 Sudeste 19 Sudeste 0 948.5 -1.3 52
2019-04-17 03:00:00 10.7 10 Sudeste 16 Sudeste 0 949 -0.7 58
2019-04-17 02:00:00 11.6 10 Sudeste 16 Sudeste 0 949.3 -0.1 61
2019-04-17 01:00:00 12.2 11 Sudeste 14 Sudeste 0 949.8 0.6 64
2019-04-17 00:00:00 11.7 9 Sudeste 10 Sudeste 0 949.7 0.6 61
2019-04-16 23:00:00 13.5 7 Sur 10 Sur 0 949.4 0.4 52
2019-04-16 22:00:00 14.5 8 Sur 9 Sur 0 949.2 0 44
2019-04-16 21:00:00 17 8 Sur 20 Sur 0 949.1 -0.4 36
2019-04-16 20:00:00 20.7 11 Sur 26 Sur 0 949 -1.2 25
2019-04-16 19:00:00 22.3 15 Sudeste 25 Sudeste 0 949.2 -1.8 23
2019-04-16 18:00:00 23.5 12 Sur 24 Sudeste 0 949.5 -2.5 23
2019-04-16 17:00:00 23.5 10 Sur 24 Sudeste 0 950.2 -2.8 25
2019-04-16 16:00:00 22 9 Sudeste 27 Sudeste 0 951 -2.6 27
2019-04-16 15:00:00 20.9 13 Este 23 Sudeste 0 952 -2.2 33
2019-04-16 14:00:00 19.9 11 Sur 24 Sudeste 0 953 -1.2 32
2019-04-16 13:00:00 18.5 12 Sudeste 21 Sur 0 953.6 -0.8 36
2019-04-16 12:00:00 17 10 Sudeste 19 Sudeste 0 954.2 0 43
2019-04-16 11:00:00 15.4 9 Sudeste 14 Sudeste 0 954.2 0.4 53
2019-04-16 10:00:00 12.7 5 Sudeste 9 Sudeste 0 954.4 0.8 69
2019-04-16 09:00:00 8.5 0 Calma 6 Sudeste 0 954.2 0.4 88
2019-04-16 08:00:00 5.7 2 Sur 8 Sudoeste 0 953.8 -0.4 90
2019-04-16 07:00:00 4.7 5 Sudoeste 8 Sur 0 953.6 -0.9 90
2019-04-16 06:00:00 5.6 3 Este 8 Este 0 953.8 -1 86
2019-04-16 05:00:00 7.7 4 Oeste 9 Oeste 0 954.2 0 85
2019-04-16 04:00:00 7.9 4 Oeste 12 Oeste 0 954.5 0.5 81
2019-04-16 03:00:00 8.8 8 Sudoeste 10 Oeste 0 954.8 1 79
2019-04-16 02:00:00 9.2 4 Oeste 10 Sudoeste 0 954.2 0.9 77
2019-04-16 01:00:00 10.1 8 Oeste 10 Oeste 0 954 1.5 77
2019-04-16 00:00:00 11.2 8 Sudoeste 13 Oeste 0 953.8 2 76
2019-04-15 23:00:00 11.6 11 Oeste 17 Oeste 0 953.3 2.4 71
2019-04-15 22:00:00 12.5 12 Oeste 18 Noroeste 0 952.5 2.2 67
2019-04-15 21:00:00 14.6 16 Noroeste 36 Noroeste 0 951.8 2.4 60
2019-04-15 20:00:00 17.1 26 Noroeste 41 Noroeste 0 950.9 2.5 54
2019-04-15 19:00:00 18.3 28 Noroeste 45 Noroeste 0 950.3 2 44
2019-04-15 18:00:00 20.9 30 Noroeste 42 Noroeste 0 949.4 0.5 33
2019-04-15 17:00:00 23 25 Oeste 39 Oeste 0 948.4 -0.8 32
2019-04-15 16:00:00 22.8 18 Oeste 38 Oeste 0 948.3 -1.3 30
2019-04-15 15:00:00 23.7 21 Oeste 38 Oeste 0 948.9 -1 29
2019-04-15 14:00:00 22.6 20 Sudoeste 33 Oeste 0 949.2 -0.7 32
2019-04-15 13:00:00 21.4 12 Sudoeste 26 Sudoeste 0 949.6 -0.1 36
2019-04-15 12:00:00 19.7 16 Sudoeste 27 Sudoeste 0 949.9 0.8 42
2019-04-15 11:00:00 18.5 15 Sudoeste 28 Sudoeste 0 949.9 1.1 50
2019-04-15 10:00:00 15.6 0 Calma 13 Sudeste 0 949.7 0.8 74
2019-04-15 09:00:00 13.2 9 Sudeste 13 Sudeste 0 949.1 -0.2 81
2019-04-15 08:00:00 9.4 8 Sudeste 12 Sudeste 0 948.8 -0.8 90
2019-04-15 07:00:00 9.6 9 Sudeste 11 Sudeste 0 948.9 -1.2 89
2019-04-15 06:00:00 10.4 7 Sudeste 10 Sudeste 0 949.3 -1.6 88
2019-04-15 05:00:00 10.5 8 Sudeste 10 Sudeste 0 949.6 -1.9 88
2019-04-15 04:00:00 10.6 6 Sudeste 9 Sudeste 0 950.1 -1.9 86
2019-04-15 03:00:00 12.9 6 Sudeste 8 Sudeste 0 950.9 -1.2 80
2019-04-15 02:00:00 12.9 6 Sudeste 8 Sur 0 951.5 -0.8 80
2019-04-15 01:00:00 13.2 5 Sur 9 Sudeste 0 952 -0.3 78
2019-04-15 00:00:00 13.7 7 Sudeste 9 Sudeste 0 952.1 0.1 77
2019-04-14 23:00:00 14.4 7 Sudeste 10 Sudeste 0 952.3 0.3 71
2019-04-14 22:00:00 16.3 5 Este 10 Nordeste 0 952.3 0.4 60
2019-04-14 21:00:00 17.9 8 Nordeste 15 Norte 0 952 0 53
2019-04-14 20:00:00 19.6 9 Norte 13 Norte 0 952 -0.5 49
2019-04-14 19:00:00 20.8 8 Noroeste 16 Noroeste 0 951.9 -1.4 45
2019-04-14 18:00:00 21.2 9 Noroeste 17 Noroeste 0 952 -1.7 44
2019-04-14 17:00:00 21.6 7 Noroeste 25 Noroeste 0 952.5 -1.7 44
2019-04-14 16:00:00 20.4 9 Noroeste 18 Norte 0 953.3 -1.4 46
2019-04-14 15:00:00 20.5 4 Noroeste 24 Norte 0 953.7 -1.5 48
2019-04-14 14:00:00 20 2 Norte 14 Oeste 0 954.2 -1.1 51
2019-04-14 13:00:00 18.4 5 Noroeste 13 Norte 0 954.7 -0.3 58
2019-04-14 12:00:00 16.5 2 Sudeste 13 Noroeste 0 955.2 0.4 66
2019-04-14 11:00:00 14.2 8 Noroeste 14 Noroeste 0 955.3 0.8 77
2019-04-14 10:00:00 13 5 Oeste 11 Oeste 0 955 0.7 86
2019-04-14 09:00:00 11.7 5 Oeste 8 Sudoeste 0 954.8 0.3 90
2019-04-14 08:00:00 10.6 5 Oeste 10 Sudoeste 0 954.5 -0.4 90
2019-04-14 07:00:00 10.1 10 Oeste 14 Oeste 0 954.3 -0.9 89
2019-04-14 06:00:00 10.1 10 Sudoeste 13 Sudoeste 0 954.5 -0.9 87
2019-04-14 05:00:00 9.8 7 Oeste 10 Oeste 0 954.9 -0.8 83
2019-04-14 04:00:00 9.8 7 Oeste 10 Oeste 0 955.2 -0.3 77
2019-04-14 03:00:00 11.1 4 Sudoeste 8 Oeste 0 955.4 -0.2 65
2019-04-14 02:00:00 10.9 7 Oeste 10 Oeste 0 955.7 0 61
2019-04-14 01:00:00 11.1 6 Oeste 8 Oeste 0 955.5 0.3 56
2019-04-14 00:00:00 12.1 4 Oeste 10 Noroeste 0 955.6 1 51
2019-04-13 23:00:00 12.3 8 Noroeste 17 Oeste 0 955.7 1.5 49
2019-04-13 22:00:00 13 7 Noroeste 13 Noroeste 0 955.2 1.3 46
2019-04-13 21:00:00 15.4 9 Noroeste 18 Oeste 0 954.6 0.9 40
2019-04-13 20:00:00 20.1 10 Noroeste 22 Oeste 0 954.2 0.2 32
2019-04-13 19:00:00 20.8 15 Oeste 24 Noroeste 0 953.9 -0.5 31
2019-04-13 18:00:00 21.5 9 Noroeste 25 Noroeste 0 953.7 -1.1 31
2019-04-13 17:00:00 21.4 8 Noroeste 28 Noroeste 0 954 -1.3 33
2019-04-13 16:00:00 20.8 10 Noroeste 21 Noroeste 0 954.4 -1.2 33
2019-04-13 15:00:00 19.6 8 Noroeste 20 Noroeste 0 954.8 -1.1 35
2019-04-13 14:00:00 19 7 Noroeste 21 Noroeste 0 955.3 -0.5 35
2019-04-13 13:00:00 18.1 10 Noroeste 20 Noroeste 0 955.6 0 36
2019-04-13 12:00:00 17.3 7 Oeste 14 Oeste 0 955.9 0.5 45
2019-04-13 11:00:00 15.2 5 Oeste 11 Oeste 0 955.8 1.1 51
2019-04-13 10:00:00 12.7 8 Noroeste 12 Oeste 0 955.6 1.1 56
2019-04-13 09:00:00 9.5 5 Oeste 8 Oeste 0 955.4 1.2 64
2019-04-13 08:00:00 6 5 Oeste 9 Sudoeste 0 954.7 0.5 65
2019-04-13 07:00:00 4.8 3 Oeste 8 Oeste 0 954.5 0.5 69
2019-04-13 06:00:00 4.8 2 Oeste 17 Noroeste 0 954.2 -0.4 63
2019-04-13 05:00:00 7.4 4 Oeste 10 Oeste 0 954.2 -0.5 55
2019-04-13 04:00:00 7 6 Oeste 7 Oeste 0 954 -0.6 56
2019-04-13 03:00:00 8.1 4 Oeste 8 Oeste 0 954.6 0 53
2019-04-13 02:00:00 8.2 7 Oeste 9 Oeste 0 954.7 0.5 55
2019-04-13 01:00:00 8.2 4 Oeste 8 Oeste 0 954.6 0.9 53
2019-04-13 00:00:00 9 5 Oeste -- -- 0 954.6 1.7 52
2019-04-12 23:00:00 10.8 4 Noroeste 10 Norte 0 954.2 1.4 44
2019-04-12 22:00:00 10.9 7 Norte 13 Nordeste 0 953.7 1 44
2019-04-12 21:00:00 13.9 10 Norte 16 Norte 0 952.9 0.1 35
2019-04-12 20:00:00 17 13 Norte 21 Noroeste 0 952.8 -0.2 31
2019-04-12 19:00:00 18.3 13 Noroeste 23 Noroeste 0 952.7 -0.9 30
2019-04-12 18:00:00 18.4 9 Norte 19 Norte 0 952.8 -1.3 29
2019-04-12 17:00:00 18.7 9 Oeste 22 Norte 0 953 -1.6 29
2019-04-12 16:00:00 17.7 9 Noroeste 23 Oeste 0 953.6 -1.2 29
2019-04-12 15:00:00 17 5 Norte 18 Norte 0 954.1 -1 32
2019-04-12 14:00:00 16.3 10 Norte 21 Noroeste 0 954.6 -0.3 33
2019-04-12 13:00:00 16.3 6 Noroeste 13 Noroeste 0 954.8 0.1 33
2019-04-12 12:00:00 15 4 Sudeste 12 Sudeste 0 955.1 0.4 38
2019-04-12 11:00:00 13 6 Este 12 Este 0 954.9 0.7 48
2019-04-12 10:00:00 11.6 0 Calma 4 Noroeste 0 954.7 0.7 62
2019-04-12 09:00:00 6.3 3 Noroeste 4 Noroeste 0 954.7 0.6 81
2019-04-12 08:00:00 2.3 0 Calma 3 Sur 0 954.2 0.3 85
2019-04-12 07:00:00 3.3 0 Calma 2 Sur 0 954 0.2 85
2019-04-12 06:00:00 4 0 Calma 4 Sudeste 0 954.1 0.2 85
2019-04-12 05:00:00 3.6 3 Sudeste 5 Sudeste 0 953.9 -0.3 82
2019-04-12 04:00:00 3.7 6 Sudeste 8 Este 0 953.8 -0.4 79
2019-04-12 03:00:00 5.5 7 Este 11 Este 0 953.9 -0.4 70
2019-04-12 02:00:00 6.5 5 Oeste 9 Sudoeste 0 954.2 0.1 69
2019-04-12 01:00:00 6.2 6 Sudoeste 9 Sudoeste 0 954.2 0.3 69
2019-04-12 00:00:00 7.1 6 Sur 11 Sudeste 0 954.3 0.9 64
2019-04-11 23:00:00 9.2 5 Oeste 8 Noroeste 0 954.1 1 55
2019-04-11 22:00:00 10.6 6 Noroeste 7 Noroeste 0 953.9 0.8 50
2019-04-11 21:00:00 11.4 6 Noroeste 16 Noroeste 0 953.4 0.1 49
2019-04-11 20:00:00 15.5 9 Noroeste 21 Noroeste 0 953.1 -0.3 34
2019-04-11 19:00:00 16.3 6 Norte 24 Norte 0 953.1 -0.6 34
2019-04-11 18:00:00 16.7 12 Norte 24 Norte 0 953.3 -0.5 33
2019-04-11 17:00:00 15.1 13 Norte 30 Noroeste 0 953.4 -0.9 34
2019-04-11 16:00:00 16.6 11 Noroeste 21 Noroeste 0 953.7 -1.1 34
2019-04-11 15:00:00 15.8 5 Norte 19 Norte 0 953.8 -1.3 37
2019-04-11 14:00:00 15.1 5 Noroeste 19 Norte 0 954.3 -0.5 41
2019-04-11 13:00:00 14 4 Noroeste 14 Noroeste 0 954.8 0.2 48
2019-04-11 12:00:00 12.5 6 Nordeste 14 Noroeste 0 955.1 0.6 53
2019-04-11 11:00:00 10.9 6 Norte 13 Norte 0 954.8 1 61
2019-04-11 10:00:00 7.9 5 Norte 10 Norte 0 954.6 1 77
2019-04-11 09:00:00 5.4 5 Noroeste 8 Oeste 0 954.5 0.9 89
2019-04-11 08:00:00 2.8 5 Oeste 9 Noroeste 0 953.8 0.4 89
2019-04-11 07:00:00 2.6 8 Oeste 11 Oeste 0 953.6 0.4 87
2019-04-11 06:00:00 3.9 5 Oeste 12 Noroeste 0 953.6 0.7 86
2019-04-11 05:00:00 3.6 9 Oeste 10 Oeste 0 953.4 0.2 85
2019-04-11 04:00:00 4.6 6 Oeste 11 Oeste 0 953.2 0 83
2019-04-11 03:00:00 5.3 10 Oeste 13 Oeste 0 952.9 0 82
2019-04-11 02:00:00 6.7 8 Noroeste 17 Oeste 0 953.2 0.2 77
2019-04-11 01:00:00 7.1 8 Sudoeste 21 Oeste 0 953.2 0.8 74
2019-04-11 00:00:00 8.7 16 Oeste 23 Noroeste 0 952.9 1.7 67
2019-04-10 23:00:00 8.9 10 Oeste 19 Oeste 0 953 2.1 61
2019-04-10 22:00:00 10.2 16 Oeste 22 Oeste 0 952.4 1.7 53
2019-04-10 21:00:00 11.2 17 Oeste 32 Oeste 0 951.2 0.3 47
2019-04-10 20:00:00 13.4 18 Noroeste 37 Oeste 0 950.9 -0.2 42
2019-04-10 19:00:00 13.9 26 Noroeste 38 Noroeste 0 950.7 -0.9 42
2019-04-10 18:00:00 14.2 25 Noroeste 39 Noroeste 0 950.9 -0.9 42
2019-04-10 17:00:00 14.8 25 Noroeste 40 Noroeste 0 951.1 -1.1 42
2019-04-10 16:00:00 13.3 24 Noroeste 36 Noroeste 0 951.6 -1.1 45
2019-04-10 15:00:00 13.3 22 Noroeste 35 Noroeste 0 951.8 -1.4 47
2019-04-10 14:00:00 12.8 22 Noroeste 36 Oeste 0 952.2 -0.7 51
2019-04-10 13:00:00 11.6 21 Noroeste 35 Noroeste 0 952.7 -0.2 55
2019-04-10 12:00:00 10 19 Oeste 31 Noroeste 0 953.2 0.7 68
2019-04-10 11:00:00 9 23 Noroeste 31 Noroeste 0 952.9 0.7 75
2019-04-10 10:00:00 6.9 17 Noroeste 28 Noroeste 0 952.9 0.7 85
2019-04-10 09:00:00 6.4 17 Noroeste 27 Noroeste 0 952.5 0.5 90
2019-04-10 08:00:00 5.3 5 Sudoeste 16 Oeste 0 952.2 -0.1 90
2019-04-10 07:00:00 5.1 11 Oeste 20 Oeste 0 952.2 -0.3 90
2019-04-10 06:00:00 5.7 16 Oeste 26 Oeste 0 952 -0.7 90
2019-04-10 05:00:00 5.5 13 Oeste 19 Oeste 0 952.3 -0.4 89
2019-04-10 04:00:00 5.7 13 Oeste 22 Oeste 0 952.5 -0.2 88
2019-04-10 03:00:00 6.2 12 Oeste 31 Oeste 0 952.7 -0.1 83
2019-04-10 02:00:00 6.7 19 Oeste 30 Oeste 0 952.7 0.1 82
2019-04-10 01:00:00 7.4 24 Oeste 32 Oeste 0 952.7 0.7 79
2019-04-10 00:00:00 8 19 Oeste 27 Oeste 0 952.8 1.3 79
2019-04-09 23:00:00 8.2 15 Oeste 22 Oeste 0 952.6 1.4 78
2019-04-09 22:00:00 8.8 16 Oeste 25 Oeste 0 952 1 77
2019-04-09 21:00:00 9.2 15 Oeste 28 Oeste 0 951.5 0.6 79
2019-04-09 20:00:00 9.9 20 Oeste 41 Oeste 1.8 951.2 0.1 67
2019-04-09 19:00:00 11.7 20 Oeste 39 Oeste 0 951 -0.2 61
2019-04-09 18:00:00 11.8 27 Oeste 50 Oeste 0 950.9 -0.7 61
2019-04-09 17:00:00 13 26 Noroeste 48 Noroeste 0 951.1 -0.7 58
2019-04-09 16:00:00 13.8 27 Oeste 41 Oeste 0 951.2 -1.4 49
2019-04-09 15:00:00 12.6 26 Oeste 45 Oeste 0 951.6 -0.9 55
2019-04-09 14:00:00 11.7 21 Oeste 39 Oeste 0 951.8 -0.9 65
2019-04-09 13:00:00 9.4 17 Oeste 45 Noroeste 1.2 952.6 -0.1 80
2019-04-09 12:00:00 11.9 21 Oeste 35 Sudoeste 0 952.5 -0.2 58
2019-04-09 11:00:00 9.9 23 Oeste 34 Oeste 0 952.7 0.5 65
2019-04-09 10:00:00 8.2 17 Oeste 25 Sudoeste 0 952.7 0.5 82
2019-04-09 09:00:00 6.6 9 Sudoeste 17 Sudoeste 0 952.7 0.8 91
2019-04-09 08:00:00 4.4 10 Sudoeste 13 Sudoeste 0 952.2 -0.1 90
2019-04-09 07:00:00 4.3 6 Oeste 15 Sudoeste 0 952.2 -0.1 90
2019-04-09 06:00:00 4.9 12 Sudoeste 19 Sudoeste 0 951.9 -0.5 89
2019-04-09 05:00:00 4.7 9 Sudoeste 14 Sudoeste 0 952.3 -0.2 88
2019-04-09 04:00:00 4.8 3 Sudoeste 12 Oeste 0 952.3 0.2 86
2019-04-09 03:00:00 4.9 5 Oeste 9 Oeste 0 952.4 0.3 85
2019-04-09 02:00:00 5.3 4 Oeste 10 Oeste 0 952.5 0.6 84
2019-04-09 01:00:00 5.4 8 Oeste 18 Oeste 0 952.1 1.2 81
2019-04-09 00:00:00 6.7 12 Noroeste 24 Noroeste 0 952.1 2.2 80
2019-04-08 23:00:00 7.8 17 Noroeste 40 Noroeste 0 951.9 2.3 79
2019-04-08 22:00:00 9.5 15 Oeste 32 Noroeste 0 950.9 1.4 58
2019-04-08 21:00:00 10.9 10 Oeste 30 Noroeste 0 949.9 0.6 53
2019-04-08 20:00:00 13.2 22 Noroeste 37 Oeste 0 949.6 0.1 49
2019-04-08 19:00:00 14.2 26 Oeste 40 Oeste 0 949.5 -0.5 48
2019-04-08 18:00:00 15.5 23 Oeste 40 Oeste 0 949.3 -1.2 44
2019-04-08 17:00:00 16.1 22 Oeste 40 Sudoeste 0 949.5 -1.6 46
2019-04-08 16:00:00 16 19 Oeste 31 Oeste 0 950 -1.2 52
2019-04-08 15:00:00 14.4 20 Oeste 28 Oeste 0 950.5 -1 59
2019-04-08 14:00:00 13.6 14 Oeste 24 Oeste 0 951.1 -0.1 71
2019-04-08 13:00:00 13.4 17 Oeste 25 Oeste 0 951.2 0.2 71
2019-04-08 12:00:00 12.3 14 Oeste 23 Oeste 0.1 951.5 0.5 84
2019-04-08 11:00:00 10.4 14 Sudoeste 29 Sudoeste 1.7 951.2 0.6 89
2019-04-08 10:00:00 10.6 19 Sudoeste 27 Sudoeste 0 951 0.5 85
2019-04-08 09:00:00 9.9 9 Sudoeste 17 Sudoeste 0 951 0.4 90
2019-04-08 08:00:00 9.1 10 Sudoeste 15 Sur 0.5 950.6 0.2 91
2019-04-08 07:00:00 9.3 9 Sudoeste 17 Sudoeste 0.5 950.5 -0.1 91
2019-04-08 06:00:00 9.3 9 Sudoeste 16 Sudoeste 0.1 950.6 -0.3 90
2019-04-08 05:00:00 9.3 11 Sudoeste 17 Sudoeste 0 950.4 -0.8 91
2019-04-08 04:00:00 9.6 12 Sudoeste 23 Sudoeste 0 950.6 -0.8 91
2019-04-08 03:00:00 9.6 14 Sudoeste 29 Sudoeste 0.4 950.9 -0.4 91
2019-04-08 02:00:00 9.9 14 Sudoeste 20 Sudoeste 0.1 951.2 -0.1 91
2019-04-08 01:00:00 9.7 12 Sudoeste 18 Sudoeste 0 951.4 0.6 91
2019-04-08 00:00:00 9.7 13 Sudoeste 18 Sudoeste 0 951.3 1.1 91
2019-04-07 23:00:00 10.2 12 Sudoeste 30 Sudoeste 0.1 951.3 1.2 90
2019-04-07 22:00:00 10.3 9 Sudoeste 18 Sur 0.8 950.8 0.9 88
2019-04-07 21:00:00 10.5 9 Sudoeste 21 Sudoeste 0 950.2 0.2 86
2019-04-07 20:00:00 10.5 11 Sudoeste 17 Sudoeste 0 950.1 0 86
2019-04-07 19:00:00 10.5 10 Sudoeste 19 Sudoeste 0 949.9 -0.7 84
2019-04-07 18:00:00 10.5 12 Sudoeste 24 Sudoeste 0 950 -0.7 82
2019-04-07 17:00:00 10.3 13 Sudoeste 23 Sudoeste 0.2 950.1 -0.6 80
2019-04-07 16:00:00 9.9 13 Sudoeste 21 Sudoeste 0.2 950.6 0 81
2019-04-07 15:00:00 10.7 10 Sudoeste 28 Sudoeste 0 950.7 0.5 71
2019-04-07 14:00:00 10.8 17 Oeste 29 Sudoeste 0 950.7 -- 63
2019-04-07 13:00:00 10.2 21 Oeste 34 Oeste 0 950.6 -- 66
2019-04-07 12:00:00 9.7 19 Oeste 35 Oeste 0 950.2 -- 71
2019-04-07 11:00:00 -- -- -- -- -- -- -- -- --
2019-04-07 10:00:00 -- -- -- -- -- -- -- -- --
2019-04-07 09:00:00 -- -- -- -- -- -- -- -- --
2019-04-07 08:00:00 -- -- -- -- -- -- -- -- --
2019-04-07 07:00:00 -- -- -- -- -- -- -- -- --
2019-04-07 06:00:00 -- -- -- -- -- -- -- -- --
2019-04-07 05:00:00 -- -- -- -- -- -- -- -- --
2019-04-07 04:00:00 -- -- -- -- -- -- -- -- --
2019-04-07 03:00:00 -- -- -- -- -- -- -- -- --
2019-04-07 02:00:00 -- -- -- -- -- -- -- -- --
2019-04-07 01:00:00 -- -- -- -- -- -- -- -- --
2019-04-07 00:00:00 -- -- -- -- -- -- -- -- --
2019-04-06 23:00:00 -- -- -- -- -- -- -- -- --
2019-04-06 22:00:00 -- -- -- -- -- -- -- -- --
2019-04-06 21:00:00 -- -- -- -- -- -- -- -- --
2019-04-06 20:00:00 -- -- -- -- -- -- -- -- --
2019-04-06 19:00:00 8.8 23 Sudoeste 35 Sudoeste 0 943.3 0.4 67
2019-04-06 18:00:00 8.9 21 Oeste 40 Noroeste 0 943.2 0.7 71
2019-04-06 17:00:00 5.5 24 Noroeste 55 Oeste 2.2 943.3 0 86
2019-04-06 16:00:00 7.1 12 Oeste 52 Oeste 1.4 942.9 -0.5 76
2019-04-06 15:00:00 11.4 25 Oeste 42 Oeste 0 942.5 -1.1 56
2019-04-06 14:00:00 9 15 Noroeste 42 Noroeste 0.2 943.3 0 74
2019-04-06 13:00:00 7.7 23 Oeste 52 Oeste 1.9 943.4 0.2 80
2019-04-06 12:00:00 6.8 26 Oeste 42 Sudoeste 0.2 943.6 0.6 74
2019-04-06 11:00:00 7.3 21 Oeste 33 Sudoeste 0 943.3 0.8 73
2019-04-06 10:00:00 6.3 19 Oeste 31 Oeste 0.1 943.2 1 84
2019-04-06 09:00:00 5.8 21 Oeste 30 Oeste 0 943 0.9 88
2019-04-06 08:00:00 5.2 7 Oeste 32 Oeste 0 942.5 0.5 88
2019-04-06 07:00:00 5.2 18 Oeste 28 Oeste 0.1 942.2 0.2 89
2019-04-06 06:00:00 5.3 16 Oeste 28 Oeste 0 942.1 -0.1 88
2019-04-06 05:00:00 5 17 Sudoeste 25 Oeste 0 942 -0.5 89
2019-04-06 04:00:00 4 14 Sudoeste 24 Oeste 0 942 -0.1 89
2019-04-06 03:00:00 3.9 14 Sudoeste 26 Oeste 0 942.2 0.4 88
2019-04-06 02:00:00 3.8 13 Sudoeste 26 Oeste 0 942.5 1.1 86
2019-04-06 01:00:00 4.4 17 Oeste 27 Sudoeste 0 942.1 1.4 87
2019-04-06 00:00:00 4.6 17 Oeste 26 Sudoeste 0 941.8 2.1 88
2019-04-05 23:00:00 4.3 16 Oeste 26 Oeste 0 941.4 2.5 86
2019-04-05 22:00:00 4.7 21 Oeste 39 Oeste 0.8 940.7 2.2 83
2019-04-05 21:00:00 6.7 24 Oeste 41 Oeste 0 939.7 1.5 64
2019-04-05 20:00:00 9.1 22 Oeste 37 Oeste 0.1 938.9 0.9 49
2019-04-05 19:00:00 9.9 20 Oeste 32 Oeste 0 938.5 0.6 48
2019-04-05 18:00:00 10.1 15 Noroeste 51 Oeste 0 938.2 -0.2 53
2019-04-05 17:00:00 10.8 25 Oeste 42 Oeste 0 938 -0.3 43
2019-04-05 16:00:00 10 28 Oeste 41 Oeste 0 937.9 -0.5 48
2019-04-05 15:00:00 9 27 Oeste 39 Oeste 0 938.4 0.2 61
2019-04-05 14:00:00 8.2 27 Oeste 36 Oeste 0.1 938.3 1.1 67
2019-04-05 13:00:00 7.2 18 Oeste 33 Noroeste 0.4 938.4 1.2 83
2019-04-05 12:00:00 5.2 21 Oeste 47 Noroeste 2.4 938.2 1.2 80
2019-04-05 11:00:00 7.3 12 Sur 19 Sudoeste 0.5 937.2 0.5 88
2019-04-05 10:00:00 6.2 9 Sudoeste 20 Oeste 0.4 937.2 -0.3 89
2019-04-05 09:00:00 6.3 12 Sur 21 Sur 0.1 937 -1.1 88
2019-04-05 08:00:00 5.8 13 Sur 23 Sur 0.5 936.7 -1.4 89
2019-04-05 07:00:00 5.8 12 Sur 20 Sur 1.5 937.5 -0.8 88
2019-04-05 06:00:00 6.3 10 Sudoeste 32 Sudoeste 0.8 938.1 -1 80
2019-04-05 05:00:00 7.5 13 Sudoeste 24 Sudoeste 0 938.1 -1.4 63
2019-04-05 04:00:00 7.7 13 Sudoeste 25 Oeste 0 938.3 -1.2 61
2019-04-05 03:00:00 8.1 14 Sudoeste 24 Sudoeste 0 939.1 -0.2 60
2019-04-05 02:00:00 8.5 16 Oeste 23 Oeste 0 939.5 0.3 55
2019-04-05 01:00:00 8.3 15 Sudoeste 22 Oeste 0 939.5 0.7 44
2019-04-05 00:00:00 8.4 10 Sudoeste 15 Sudoeste 0 939.3 1.2 41
2019-04-04 23:00:00 8.1 8 Sudoeste 12 Sudoeste 0 939.2 0.8 40
2019-04-04 22:00:00 9.7 9 Oeste 18 Oeste 0 938.8 0.6 34
2019-04-04 21:00:00 11.2 15 Oeste 30 Oeste 0 938.1 -0.1 31
2019-04-04 20:00:00 14 22 Oeste 33 Oeste 0 938.4 -0.2 28
2019-04-04 19:00:00 15.5 23 Oeste 34 Oeste 0 938.2 -1.2 28
2019-04-04 18:00:00 16.8 13 Oeste 28 Oeste 0 938.2 -2 28
2019-04-04 17:00:00 16.7 13 Oeste 25 Oeste 0 938.6 -2.4 28
2019-04-04 16:00:00 16.4 5 Sudoeste 28 Sudoeste 0 939.4 -2 29
2019-04-04 15:00:00 15.3 8 Sudoeste 18 Oeste 0 940.2 -1.4 32
2019-04-04 14:00:00 14 5 Noroeste 16 Sudoeste 0 941 -0.6 33
2019-04-04 13:00:00 13.5 6 Sudoeste 14 Sur 0 941.4 -0.2 35
2019-04-04 12:00:00 11.6 5 Este 16 Este 0 941.6 0.3 38
2019-04-04 11:00:00 9.2 8 Nordeste 17 Norte 0 941.6 0.9 46
2019-04-04 10:00:00 6.2 8 Noroeste 12 Noroeste 0 941.6 1.2 59
2019-04-04 09:00:00 2.3 9 Noroeste 13 Noroeste 0 941.3 1.2 72
2019-04-04 08:00:00 0.2 9 Noroeste 12 Oeste 0 940.7 0.6 73
2019-04-04 07:00:00 0.8 6 Noroeste 10 Noroeste 0 940.4 0 69
2019-04-04 06:00:00 1.7 6 Noroeste 17 Noroeste 0 940.1 -0.7 63
2019-04-04 05:00:00 3.5 16 Noroeste 20 Noroeste 0 940.1 -1.1 56
2019-04-04 04:00:00 3.9 2 Norte 20 Noroeste 0 940.4 -1.1 55
2019-04-04 03:00:00 3.8 6 Noroeste 14 Noroeste 0 940.8 -0.8 56
2019-04-04 02:00:00 3.9 12 Noroeste 15 Noroeste 0 941.2 -0.7 55
2019-04-04 01:00:00 5.5 13 Noroeste 15 Oeste 0 941.5 -0.1 52
2019-04-04 00:00:00 5.5 9 Noroeste 17 Noroeste 0 941.6 0.6 50
2019-04-03 23:00:00 7.1 13 Noroeste 21 Noroeste 0 941.9 1.1 43
2019-04-03 22:00:00 9.5 17 Noroeste 29 Noroeste 0 941.6 0.6 38
2019-04-03 21:00:00 11.7 14 Oeste 28 Oeste 0 941 -0.2 37
2019-04-03 20:00:00 14.4 21 Noroeste 35 Noroeste 0 940.8 -0.8 38
2019-04-03 19:00:00 15.4 24 Oeste 37 Oeste 0 941 -1.1 37
2019-04-03 18:00:00 15.6 28 Noroeste 42 Noroeste 0 941.2 -1.6 37
2019-04-03 17:00:00 17.2 28 Noroeste 43 Oeste 0 941.6 -2 34
2019-04-03 16:00:00 17.7 27 Oeste 41 Oeste 0 942.1 -2.2 31
2019-04-03 15:00:00 17.8 23 Oeste 38 Noroeste 0 942.8 -2.2 30
2019-04-03 14:00:00 16.7 24 Oeste 35 Oeste 0 943.6 -1.8 33
2019-04-03 13:00:00 16 14 Oeste 24 Oeste 0 944.3 -1.6 36
2019-04-03 12:00:00 15.1 16 Oeste 26 Oeste 0 945 -1.2 36
2019-04-03 11:00:00 13.3 14 Oeste 21 Oeste 0 945.4 -1.1 44
2019-04-03 10:00:00 10.9 10 Oeste 14 Oeste 0 945.9 -0.9 68
2019-04-03 09:00:00 8.2 9 Sudoeste 13 Sudoeste 0 946.2 -0.9 84
2019-04-03 08:00:00 6.7 9 Sudoeste 14 Sudoeste 0 946.5 -1.3 85
2019-04-03 07:00:00 7 9 Sudoeste 12 Sudoeste 0 946.8 -1.7 83
2019-04-03 06:00:00 7.4 7 Sudoeste 14 Sudoeste 0 947.1 -2 80
2019-04-03 05:00:00 7.6 10 Sudoeste 13 Sudoeste 0 947.8 -2.1 80
2019-04-03 04:00:00 7.5 3 Sudoeste 7 Oeste 0 948.5 -1.7 77
2019-04-03 03:00:00 8.5 4 Oeste 9 Sudoeste 0 949.1 -1 74
2019-04-03 02:00:00 8 4 Sur 6 Sudoeste 0 949.9 -0.4 70
2019-04-03 01:00:00 9.4 5 Oeste 10 Sudoeste 0 950.2 0.1 64
2019-04-03 00:00:00 9.7 9 Sudoeste 10 Sudoeste 0 950.1 0.2 63
2019-04-02 23:00:00 10.9 5 Oeste 8 Noroeste 0 950.3 0.7 57
2019-04-02 22:00:00 12 6 Noroeste 9 Noroeste 0 950.1 0.5 55
2019-04-02 21:00:00 13 8 Noroeste 18 Oeste 0 949.9 0 50
2019-04-02 20:00:00 16.9 13 Noroeste 21 Noroeste 0 949.6 -0.7 40
2019-04-02 19:00:00 17.8 15 Noroeste 23 Noroeste 0 949.6 -1.4 39
2019-04-02 18:00:00 17.4 9 Noroeste 23 Norte 0 949.9 -1.7 37
2019-04-02 17:00:00 16.8 8 Noroeste 21 Oeste 0 950.3 -1.9 40
2019-04-02 16:00:00 18.3 2 Norte 18 Noroeste 0 951 -1.8 42
2019-04-02 15:00:00 16.5 8 Norte 15 Norte 0 951.6 -1.4 43
2019-04-02 14:00:00 15.8 3 Noroeste 14 Noroeste 0 952.2 -0.9 48
2019-04-02 13:00:00 13.9 6 Norte 11 Noroeste 0 952.8 0.1 56
2019-04-02 12:00:00 13.2 3 Sudoeste 10 Oeste 0 953 0.6 65
2019-04-02 11:00:00 10.6 3 Sudoeste 8 Sudoeste 0 953.1 1.2 90
2019-04-02 10:00:00 9.3 2 Sur 7 Noroeste 0 952.7 0.9 91
2019-04-02 09:00:00 8 0 Calma 6 Sudeste 0 952.4 0.8 91
2019-04-02 08:00:00 6 5 Sudeste 7 Sudeste 0 951.9 0.1 91
2019-04-02 07:00:00 7.8 0 Calma 10 Sudoeste 0 951.8 -0.1 91
2019-04-02 06:00:00 7 3 Sudeste 6 Sudeste 0 951.6 -0.7 91
2019-04-02 05:00:00 7.6 3 Sudeste 7 Este 0 951.8 -0.4 90
2019-04-02 04:00:00 8.4 0 Calma 4 Sudeste 0 951.9 -0.2 90
2019-04-02 03:00:00 8.3 0 Calma 7 Sudeste 0 952.3 0.3 89
2019-04-02 02:00:00 8.3 5 Sudeste 9 Sur 0 952.2 0.4 89
2019-04-02 01:00:00 7.8 9 Sur 11 Sur 0 952.1 1 88
2019-04-02 00:00:00 8.4 5 Sur 10 Sur 0 952 1.8 82
2019-04-01 23:00:00 10.2 6 Sudoeste 10 Sudoeste 0 951.8 2.2 75
2019-04-01 22:00:00 11.1 7 Oeste 11 Oeste 0 951.1 2.2 74
2019-04-01 21:00:00 11.4 8 Sur 19 Sur 0 950.2 1.2 64
2019-04-01 20:00:00 13.7 12 Sur 24 Sur 0 949.6 0.5 55
2019-04-01 19:00:00 16.2 14 Sur 23 Sur 0 948.9 0.3 49
2019-04-01 18:00:00 15.2 6 Sudoeste 19 Sudoeste 0 949 -0.1 51
2019-04-01 17:00:00 14.3 10 Oeste 23 Noroeste 0 949.1 -0.5 61
2019-04-01 16:00:00 18.5 7 Sudoeste 19 Sur 0 948.6 -1.4 38
2019-04-01 15:00:00 18.1 12 Sur 21 Sudoeste 0 949.1 -1 40
2019-04-01 14:00:00 16.8 7 Sur 15 Sur 0 949.6 0 49
2019-04-01 13:00:00 15.6 10 Sur 21 Sudoeste 0 950 0.9 51
2019-04-01 12:00:00 13.9 9 Sudoeste 19 Sudoeste 0 950.1 1.4 61
2019-04-01 11:00:00 12.5 9 Sudoeste 13 Sur 0 949.6 1.3 76
2019-04-01 10:00:00 11 6 Sur 9 Sur 0 949.1 1.1 90
2019-04-01 09:00:00 10.3 2 Sur 4 Sur 0 948.7 0.8 91
2019-04-01 08:00:00 9.8 3 Este 4 Este 0 948.3 0.3 90
2019-04-01 07:00:00 9.9 2 Este 6 Este 0 948 -0.1 90
2019-04-01 06:00:00 9.8 3 Sudeste 7 Sudeste 0 947.9 -0.5 90
2019-04-01 05:00:00 9.7 4 Sudeste 7 Este 0 948 -0.3 90
2019-04-01 04:00:00 9.9 5 Sudeste 6 Sudeste 0 948.1 -0.2 89
2019-04-01 03:00:00 9.8 4 Sur 5 Sur 0 948.4 0.3 89
2019-04-01 02:00:00 10 3 Sudeste 9 Sur 0 948.3 0.4 88
2019-04-01 01:00:00 9.9 7 Sur 10 Sudeste 0 948.3 0.7 88
2019-04-01 00:00:00 10.5 2 Sur 6 Sudeste 0 948.1 1.1 88
2019-03-31 23:00:00 10.7 4 Sudeste 9 Sur 0 947.9 1.5 87
2019-03-31 22:00:00 11.2 8 Sur 13 Noroeste 0 947.6 1.8 80
2019-03-31 21:00:00 12.3 7 Norte 30 Oeste 0 947 1.5 67
2019-03-31 20:00:00 12.8 6 Noroeste 21 Norte 0 946.4 0.5 62
2019-03-31 19:00:00 15 16 Norte 22 Norte 0 945.8 -0.5 49
2019-03-31 18:00:00 16.3 5 Nordeste 19 Noroeste 0 945.5 -1.5 53
2019-03-31 17:00:00 16.1 3 Nordeste 14 Este 0 945.9 -1.8 49
2019-03-31 16:00:00 15.3 11 Este 20 Sudeste 0 946.3 -2.1 52
2019-03-31 15:00:00 16.9 8 Nordeste 14 Nordeste 0 947 -1.8 52
2019-03-31 14:00:00 15.7 5 Noroeste 13 Norte 0 947.7 -0.9 59
2019-03-31 13:00:00 15.5 4 Norte 9 Norte 0 948.4 -0.2 60
2019-03-31 12:00:00 13.5 0 Calma 6 Oeste 0 948.8 0.5 73
2019-03-31 11:00:00 11.9 3 Noroeste 9 Oeste 0 948.6 0.6 80
2019-03-31 10:00:00 10.5 4 Noroeste 6 Noroeste 0 948.6 1 91
2019-03-31 09:00:00 9.5 2 Sudeste 6 Sudeste 0.1 948.3 0.2 91
2019-03-31 08:00:00 9.2 5 Este 7 Este 0 948 -0.7 91
2019-03-31 07:00:00 9.4 0 Calma 11 Sur 0 947.6 -2 91
2019-03-31 06:00:00 9.6 5 Sur 14 Oeste 2.1 948.1 -2.1 91
2019-03-31 05:00:00 9.6 9 Sudeste 13 Este 2.1 948.7 -2.1 91
2019-03-31 03:00:00 9.7 8 Sudeste 14 Sudeste 2 950.2 -0.8 91
2019-03-31 01:00:00 10.7 8 Sudoeste 16 Sur 2.8 950.8 0.3 86
2019-03-31 00:00:00 11.7 10 Noroeste 13 Sur 0.2 950.6 0.3 73
2019-03-30 23:00:00 11.5 6 Sur 12 Sur 0 951 1.1 65
2019-03-30 22:00:00 12 8 Sur 11 Sur 0 950.5 1 61
2019-03-30 21:00:00 12 6 Este 18 Este 0 950.3 0.9 60
2019-03-30 20:00:00 13 9 Este 19 Nordeste 0 949.9 0.5 57
2019-03-30 19:00:00 15.5 12 Nordeste 35 Noroeste 0 949.5 -0.1 50
2019-03-30 18:00:00 18.9 7 Oeste 20 Oeste 0 949.4 -1.2 35
2019-03-30 17:00:00 19.6 9 Nordeste 18 Este 0 949.4 -2.1 34
2019-03-30 16:00:00 19.6 6 Este 19 Sudeste 0 949.6 -3 34
2019-03-30 15:00:00 20.1 13 Este 22 Este 0 950.6 -3 34
2019-03-30 14:00:00 19.2 8 Este 26 Este 0 951.5 -2.7 37
2019-03-30 13:00:00 18.1 9 Este 24 Este 0 952.6 -2 39
2019-03-30 12:00:00 17.1 6 Nordeste 19 Sudeste 0 953.6 -1.1 42
2019-03-30 11:00:00 15.2 9 Este 18 Este 0 954.2 -0.3 48
2019-03-30 10:00:00 13.2 9 Este 16 Este 0 954.6 0.2 56
2019-03-30 09:00:00 9.7 7 Este 10 Este 0 954.7 0.2 75
2019-03-30 08:00:00 5.3 6 Sur 8 Sur 0 954.5 -0.3 90
2019-03-30 07:00:00 4 4 Sudeste 9 Sudeste 0 954.4 -0.8 87
2019-03-30 06:00:00 6.2 4 Este 9 Nordeste 0 954.5 -1 85
2019-03-30 05:00:00 6.3 8 Este 9 Este 0 954.8 -0.6 82
2019-03-30 04:00:00 7.7 6 Sudeste 13 Sur 0 955.2 -0.2 79
2019-03-30 03:00:00 8.5 6 Sur 13 Sur 0 955.5 0.1 71
2019-03-30 02:00:00 9.3 0 Calma 8 Oeste 0 955.4 -0.1 61
2019-03-30 01:00:00 9.7 4 Noroeste 15 Sudeste 0 955.4 -0.2 59
2019-03-30 00:00:00 10.5 6 Sudeste 9 Sudeste 0 955.4 -0.1 56
2019-03-29 23:00:00 11.1 6 Sudeste 8 Sur 0 955.5 0.5 56
2019-03-29 22:00:00 10.5 6 Sur 13 Sur 0 955.6 0.7 54
2019-03-29 21:00:00 11.6 7 Sur 15 Sur 0 955.5 0.7 38
2019-03-29 20:00:00 12.8 6 Sur 12 Sudeste 0 955 0 35
2019-03-29 19:00:00 17 9 Sudeste 13 Sudeste 0 954.9 -0.3 29
2019-03-29 18:00:00 18.3 10 Sudeste 19 Sudeste 0 954.8 -1 26
2019-03-29 17:00:00 19 10 Sur 34 Sudeste 0 955 -1.5 26
2019-03-29 16:00:00 19 5 Este 24 Sudeste 0 955.2 -1.9 26
2019-03-29 15:00:00 18.8 12 Sudeste 24 Sudeste 0 955.8 -1.9 26
2019-03-29 14:00:00 18.5 7 Sudeste 23 Sudeste 0 956.5 -1.7 26
2019-03-29 13:00:00 16.5 12 Sudeste 22 Sudeste 0 957.1 -1.2 26
2019-03-29 12:00:00 16.4 9 Sudeste 21 Sudeste 0 957.7 -0.6 28
2019-03-29 11:00:00 14 8 Sudeste 17 Sudeste 0 958.2 -0.1 32
2019-03-29 10:00:00 11 8 Este 17 Este 0 958.3 0.4 39
2019-03-29 09:00:00 7.5 12 Este 15 Este 0 958.3 0.7 48
2019-03-29 08:00:00 1.6 7 Este 9 Este 0 958.3 0.8 71
2019-03-29 07:00:00 -0.6 6 Sudeste 8 Sudeste 0 957.9 0.3 73
2019-03-29 06:00:00 0.6 5 Sudeste 10 Sudeste 0 957.6 0 67
2019-03-29 05:00:00 0 6 Sudeste 9 Este 0 957.5 -0.4 65
2019-03-29 04:00:00 2.9 0 Calma 6 Sur 0 957.6 -0.6 61
2019-03-29 03:00:00 3.2 4 Sur 10 Sudeste 0 957.6 -0.7 59
2019-03-29 02:00:00 4.3 10 Sudeste 12 Sudeste 0 957.9 0 56
2019-03-29 01:00:00 4.1 8 Sur 11 Sur 0 958.2 0.5 49
2019-03-29 00:00:00 5.7 7 Sudeste 13 Sudeste 0 958.3 1 42
2019-03-28 23:00:00 9.9 7 Sudoeste 10 Sur 0 957.9 1 32
2019-03-28 22:00:00 9.9 3 Este 6 Este 0 957.7 1 28
2019-03-28 21:00:00 11.8 4 Sur 9 Sudoeste 0 957.3 0.7 25
2019-03-28 20:00:00 13.6 6 Sudeste 12 Sudeste 0 956.9 0.1 23
2019-03-28 19:00:00 16.8 9 Sudeste 21 Sudeste 0 956.7 -0.5 20
2019-03-28 18:00:00 18.3 13 Sudeste 29 Sudeste 0 956.6 -1.5 19
2019-03-28 17:00:00 19.4 12 Sudeste 35 Este 0 956.8 -2.1 19
2019-03-28 16:00:00 18.3 17 Este 34 Sudeste 0 957.2 -2.2 19
2019-03-28 15:00:00 17.7 18 Sudeste 36 Sudeste 0 958.1 -2 20
2019-03-28 14:00:00 16.9 15 Sudeste 30 Este 0 958.9 -1.3 22
2019-03-28 13:00:00 15.8 18 Sudeste 31 Este 0 959.4 -0.9 23
2019-03-28 12:00:00 15.5 17 Sudeste 34 Sudeste 0 960.1 -0.2 26
2019-03-28 11:00:00 14.2 14 Este 26 Este 0 960.2 0.3 34
2019-03-28 10:00:00 10.9 13 Sudeste 19 Sudeste 0 960.3 0.7 44
2019-03-28 09:00:00 8.3 5 Sudeste 7 Sudeste 0 960.3 1.2 65
2019-03-28 08:00:00 3.5 4 Sudeste 10 Sur 0 959.9 0.9 87
2019-03-28 07:00:00 0.9 8 Sudeste 9 Sudeste 0 959.6 0.5 88
2019-03-28 06:00:00 1.7 4 Este 9 Este 0 959.1 0.2 82
2019-03-28 05:00:00 2.9 8 Este 10 Este 0 959 -0.1 74
2019-03-28 04:00:00 3.2 3 Nordeste 8 Este 0 959.1 0.2 74
2019-03-28 03:00:00 3.8 6 Sur 9 Sudeste 0 958.9 0.3 73
2019-03-28 02:00:00 4.3 8 Sudeste 9 Sudeste 0 959.1 1.2 64
2019-03-28 01:00:00 5.6 7 Sur 9 Sur 0 958.9 1.3 53
2019-03-28 00:00:00 7 5 Sur 22 Sudeste 0 958.6 1.6 42
2019-03-27 23:00:00 7 11 Este 14 Este 0 957.9 1.5 40
2019-03-27 22:00:00 9 4 Sudeste 16 Nordeste 0 957.6 1.8 32
2019-03-27 21:00:00 12.5 12 Nordeste 22 Nordeste 0 957 1.7 27
2019-03-27 20:00:00 13.8 12 Nordeste 26 Nordeste 0 956.4 1.2 25
2019-03-27 19:00:00 16.7 14 Este 33 Nordeste 0 955.8 0.4 22
2019-03-27 18:00:00 18.3 16 Este 32 Nordeste 0 955.3 -0.3 22
2019-03-27 17:00:00 18.9 18 Este 36 Este 0 955.2 -0.8 22
2019-03-27 16:00:00 18.7 23 Este 40 Este 0 955.4 -1.2 23
2019-03-27 15:00:00 18.1 22 Este 42 Este 0 955.6 -1.7 23
2019-03-27 14:00:00 18.4 20 Este 42 Este 0 956 -1.5 27
2019-03-27 13:00:00 16.9 17 Este 34 Nordeste 0 956.6 -0.5 30
2019-03-27 12:00:00 14 12 Nordeste 24 Este 0 957.3 0.5 39
2019-03-27 11:00:00 12.6 10 Este 22 Sudeste 0 957.5 1.1 43
2019-03-27 10:00:00 11.1 12 Este 22 Este 0 957.1 1.9 48
2019-03-27 09:00:00 8.3 9 Este 16 Nordeste 0 956.8 2.2 62
2019-03-27 08:00:00 4.7 9 Nordeste 15 Este 0 956.4 2.3 75
2019-03-27 07:00:00 2.2 14 Este 15 Este 0 955.2 1.4 82
2019-03-27 06:00:00 4.2 12 Este 16 Este 0 954.6 0.7 74
2019-03-27 05:00:00 4.6 13 Este 20 Este 0 954.1 0.7 71
2019-03-27 04:00:00 5 14 Este 18 Este 0 953.8 0.7 73
2019-03-27 03:00:00 6.7 8 Este 15 Nordeste 0 953.9 1.3 67
2019-03-27 02:00:00 8.9 9 Este 22 Sudeste 0 953.4 1.1 61
2019-03-27 01:00:00 9.6 5 Sudeste 15 Sudeste 0 953.1 1.8 58
2019-03-27 00:00:00 10.6 10 Sudeste 15 Sudeste 0 952.6 2.2 53
2019-03-26 23:00:00 11.2 10 Sudeste 23 Este 0 952.3 2.8 44
2019-03-26 22:00:00 14.4 18 Este 32 Este 0 951.3 2.6 39
2019-03-26 21:00:00 16.6 18 Este 35 Este 0 950.4 2.1 33
2019-03-26 20:00:00 18.2 18 Este 32 Este 0 949.5 1.3 29
2019-03-26 19:00:00 20.5 19 Nordeste 31 Nordeste 0 948.7 0.2 25
2019-03-26 18:00:00 22.5 18 Este 30 Este 0 948.3 -0.3 22
2019-03-26 17:00:00 23.3 14 Este 28 Este 0 948.2 -1.2 23
2019-03-26 16:00:00 22.9 16 Este 35 Este 0 948.5 -1.5 23
2019-03-26 15:00:00 22 18 Este 33 Este 0 948.6 -2 25
2019-03-26 14:00:00 21.4 16 Este 33 Nordeste 0 949.4 -1.3 27
2019-03-26 13:00:00 19.8 17 Nordeste 31 Nordeste 0 950 -0.3 30
2019-03-26 12:00:00 17.9 15 Nordeste 26 Este 0 950.6 0.5 33
2019-03-26 11:00:00 16.2 14 Este 25 Nordeste 0 950.7 0.5 36
2019-03-26 10:00:00 13.9 14 Este 24 Este 0 950.3 0 39
2019-03-26 09:00:00 10.5 5 Este 9 Este 0 950.1 0.1 50
2019-03-26 08:00:00 5.6 9 Este 14 Este 0 950.2 0.3 60
2019-03-26 07:00:00 2.2 6 Sudeste 14 Este 0 950.3 0 64
2019-03-26 06:00:00 6.9 3 Nordeste 6 Sudeste 0 950 -0.6 54
2019-03-26 05:00:00 7 0 Calma 7 Sudeste 0 949.9 -0.9 49
2019-03-26 04:00:00 7.5 5 Sudeste 10 Sudeste 0 950.3 -0.5 45
2019-03-26 03:00:00 8.5 8 Sudeste 11 Este 0 950.6 -0.2 41
2019-03-26 02:00:00 9.1 7 Sudeste 10 Sudeste 0 950.8 -0.4 40
2019-03-26 01:00:00 7.8 8 Sur 12 Este 0 950.8 -0.2 40
2019-03-26 00:00:00 9.1 11 Este 13 Este 0 950.8 -0.1 35
2019-03-25 23:00:00 10.9 7 Este 12 Este 0 951.2 0.6 32
2019-03-25 22:00:00 10.6 9 Este 12 Este 0 951 0.5 32
2019-03-25 21:00:00 12.6 6 Este 15 Nordeste 0 950.9 0.5 27
2019-03-25 20:00:00 16.5 9 Nordeste 23 Nordeste 0 950.6 -0.2 24
2019-03-25 19:00:00 19.4 16 Nordeste 32 Nordeste 0 950.5 -0.8 23
2019-03-25 18:00:00 20.7 18 Nordeste 31 Nordeste 0 950.4 -1.8 23
2019-03-25 17:00:00 21.3 16 Nordeste 34 Este 0 950.8 -2.5 23
2019-03-25 16:00:00 21.3 18 Este 33 Este 0 951.3 -3 23
2019-03-25 15:00:00 21.1 18 Este 34 Este 0 952.2 -2.8 23
2019-03-25 14:00:00 20.5 15 Este 34 Sudeste 0 953.3 -2.3 23
2019-03-25 13:00:00 19.8 19 Este 32 Este 0 954.3 -1.8 27
2019-03-25 12:00:00 18.3 21 Este 31 Este 0 955 -0.6 32
2019-03-25 11:00:00 15.7 15 Este 26 Este 0 955.6 0.1 38
2019-03-25 10:00:00 13 12 Este 18 Este 0 956.1 1.1 45
2019-03-25 09:00:00 9.3 4 Este 8 Este 0 955.6 0.4 66
2019-03-25 08:00:00 4.2 3 Norte 10 Norte 0 955.5 0.3 87
2019-03-25 07:00:00 3.8 3 Nordeste 7 Este 0 955 -0.3 87
2019-03-25 06:00:00 4.6 4 Sudeste 5 Sur 0 955.2 -0.2 82
2019-03-25 05:00:00 5.2 3 Sur 8 Sur 0 955.2 -0.5 85
2019-03-25 04:00:00 4.1 4 Sudeste 11 Nordeste 0 955.3 -0.7 78
2019-03-25 03:00:00 6.1 5 Este 10 Nordeste 0 955.4 -0.6 72
2019-03-25 02:00:00 6.9 2 Nordeste 10 Este 0 955.7 -0.6 70
2019-03-25 01:00:00 7.2 5 Sudeste 8 Este 0 956 -0.1 69
2019-03-25 00:00:00 6.9 5 Sur 6 Sur 0 956 0.3 67
2019-03-24 23:00:00 9.3 3 Sudeste 4 Sudeste 0 956.3 0.8 61
2019-03-24 22:00:00 10.1 4 Sur 5 Sur 0 956.1 0.6 56
2019-03-24 21:00:00 11.5 6 Sur 8 Sur 0 955.7 0.4 51
2019-03-24 20:00:00 13.8 3 Sudeste 7 Sudeste 0 955.5 0.4 44
2019-03-24 19:00:00 16.5 5 Sudeste 16 Sudeste 0 955.5 0.1 39
2019-03-24 18:00:00 16.8 10 Este 20 Este 0 955.3 -0.2 37
2019-03-24 17:00:00 17.7 14 Este 23 Este 0 955.1 -1 34
2019-03-24 16:00:00 18.6 15 Este 27 Este 0 955.4 -1.1 34
2019-03-24 15:00:00 18.8 17 Este 33 Este 0 955.5 -1.4 33
2019-03-24 14:00:00 18.4 14 Este 30 Este 0 956.1 -1 34
2019-03-24 13:00:00 18.3 17 Este 31 Este 0 956.5 -0.6 33
2019-03-24 12:00:00 16.6 10 Este 20 Este 0 956.9 0.3 39
2019-03-24 11:00:00 14.2 12 Este 18 Este 0 957.1 0.8 45
2019-03-24 10:00:00 10.9 7 Este 12 Este 0 957.1 1.2 58
2019-03-24 09:00:00 7.7 4 Este 8 Este 0 956.6 0.7 78
2019-03-24 08:00:00 3.6 4 Sudeste 12 Sudeste 0 956.3 0.4 90
2019-03-24 07:00:00 2.5 8 Sudeste 11 Sudeste 0 955.9 0 90
2019-03-24 06:00:00 4.1 5 Sudeste 6 Sudeste 0 955.9 -0.4 90
2019-03-24 05:00:00 3.3 4 Sur 9 Sudeste 0 955.9 -0.6 89
2019-03-24 04:00:00 3.5 8 Sudeste 9 Sudeste 0 955.9 -0.8 87
2019-03-24 03:00:00 5.1 6 Este 14 Este 0 956.3 -0.7 78
2019-03-24 02:00:00 6.6 4 Este 7 Sudeste 0 956.5 -0.7 77
2019-03-24 01:00:00 6.9 5 Sudeste 11 Sudeste 0 956.7 -0.4 73
2019-03-24 00:00:00 7.4 7 Este 17 Este 0 957 0.2 70
2019-03-23 23:00:00 8.5 9 Este 19 Este 0 957.2 1.1 64
2019-03-23 22:00:00 10.2 10 Sudeste 14 Sudeste 0 957.1 1.5 58
2019-03-23 21:00:00 12.1 11 Sudeste 21 Sudeste 0 956.8 1.8 53
2019-03-23 20:00:00 13.2 13 Este 24 Este 0 956.1 1 53
2019-03-23 19:00:00 14.2 13 Este 39 Este 0 955.6 0.4 51
2019-03-23 18:00:00 16.7 13 Este 32 Este 0 955 -1 37
2019-03-23 17:00:00 17.4 19 Sudeste 31 Este 0 955.1 -1.7 34
2019-03-23 16:00:00 18.1 21 Este 41 Este 0 955.2 -2.4 33
2019-03-23 15:00:00 19.1 22 Este 47 Este 0 956 -2.3 34
2019-03-23 14:00:00 18.1 20 Este 40 Este 0 956.8 -2.2 34
2019-03-23 13:00:00 17.6 23 Este 39 Este 0 957.6 -1.8 33
2019-03-23 12:00:00 16.5 26 Este 42 Este 0 958.3 -1 35
2019-03-23 11:00:00 15 16 Este 26 Nordeste 0 959 -0.1 42
2019-03-23 10:00:00 12.9 14 Este 19 Este 0 959.4 0.4 52
2019-03-23 09:00:00 7.7 5 Este 8 Este 0 959.3 0.3 69
2019-03-23 08:00:00 4.4 5 Este 7 Este 0 959.1 0.1 74
2019-03-23 07:00:00 1.9 4 Sudeste 11 Este 0 959 -0.2 79
2019-03-23 06:00:00 3.3 10 Este 14 Este 0 959 -0.7 74
2019-03-23 05:00:00 3.9 7 Sudeste 12 Este 0 959 -0.5 71
2019-03-23 04:00:00 2.9 8 Sudeste 11 Este 0 959.2 -0.2 67
2019-03-23 03:00:00 3.8 8 Sudeste 12 Este 0 959.7 0.2 65
2019-03-23 02:00:00 5.1 9 Sudeste 14 Este 0 959.5 0.5 62
2019-03-23 01:00:00 4.6 10 Este 12 Este 0 959.4 0.6 61
2019-03-23 00:00:00 5.2 10 Sur 16 Sur 0 959.5 1.2 58
2019-03-22 23:00:00 8.8 4 Este 14 Este 0 959 1.1 46
2019-03-22 22:00:00 10.9 10 Este 20 Nordeste 0 958.8 1.1 41
2019-03-22 21:00:00 12.3 10 Nordeste 18 Norte 0 958.3 0.6 38
2019-03-22 20:00:00 13.7 9 Nordeste 19 Nordeste 0 957.9 0.1 34
2019-03-22 19:00:00 16.3 14 Nordeste 28 Nordeste 0 957.7 -0.7 31
2019-03-22 18:00:00 17.3 15 Nordeste 28 Nordeste 0 957.7 -1 30
2019-03-22 17:00:00 17.5 15 Nordeste 27 Este 0 957.8 -1.6 31
2019-03-22 16:00:00 17.5 13 Este 31 Este 0 958.4 -1.6 30
2019-03-22 15:00:00 17.2 14 Este 33 Nordeste 0 958.7 -1.7 29
2019-03-22 14:00:00 16.2 15 Este 28 Nordeste 0 959.4 -1.3 29
2019-03-22 13:00:00 15 13 Nordeste 26 Nordeste 0 960 -1 32
2019-03-22 12:00:00 14 15 Este 26 Nordeste 0 960.4 -0.1 33
2019-03-22 11:00:00 12.2 15 Este 27 Este 0 960.7 0.1 37
2019-03-22 10:00:00 9.5 9 Este 17 Nordeste 0 961 0.5 45
2019-03-22 09:00:00 6.1 7 Este 13 Este 0 960.5 0.3 59
2019-03-22 08:00:00 1.5 0 Calma 5 Sudeste 0 960.6 0.6 70
2019-03-22 07:00:00 0 3 Sudeste 6 Nordeste 0 960.5 0.5 74
2019-03-22 06:00:00 -1.5 0 Calma 8 Este 0 960.2 0.4 76
2019-03-22 05:00:00 -0.2 5 Sudeste 7 Este 0 960 0.1 69
2019-03-22 04:00:00 1 3 Este 9 Este 0 960 0 63
2019-03-22 03:00:00 2.3 7 Sudeste 10 Sur 0 959.8 -0.1 57
2019-03-22 02:00:00 3.8 5 Sudeste 16 Sudeste 0 959.9 -0.1 52
2019-03-22 01:00:00 3.7 7 Sudeste 11 Sudeste 0 960 0.3 51
2019-03-22 00:00:00 5.1 2 Sur 3 Sur 0 959.9 0.6 44
2019-03-21 23:00:00 6.3 2 Este 7 Nordeste 0 960 1.4 39
2019-03-21 22:00:00 8 6 Este 17 Este 0 959.7 1.2 33
2019-03-21 21:00:00 10.2 9 Nordeste 17 Nordeste 0 959.3 1.2 31
2019-03-21 20:00:00 11.5 8 Nordeste 14 Nordeste 0 958.6 0.1 28
2019-03-21 19:00:00 13.7 10 Este 21 Este 0 958.5 -0.2 26
2019-03-21 18:00:00 15.2 11 Nordeste 25 Este 0 958.1 -1.1 25
2019-03-21 17:00:00 15.6 14 Nordeste 37 Este 0 958.5 -1.5 25
2019-03-21 16:00:00 15.8 13 Este 32 Este 0 958.7 -2 26
2019-03-21 15:00:00 14.8 17 Nordeste 30 Este 0 959.2 -1.7 26
2019-03-21 14:00:00 14.4 17 Este 35 Este 0 960 -1.4 27
2019-03-21 13:00:00 14.4 17 Este 37 Este 0 960.7 -1 27
2019-03-21 12:00:00 13.8 17 Este 34 Sudeste 0 960.9 -0.4 29
2019-03-21 11:00:00 12.1 18 Sudeste 30 Este 0 961.4 0.6 34
2019-03-21 10:00:00 10 12 Sudeste 18 Sudeste 0 961.7 1.2 48
2019-03-21 09:00:00 6 8 Este 15 Este 0 961.3 1.3 73
2019-03-21 08:00:00 1.5 5 Este 8 Este 0 960.8 1.1 87
2019-03-21 07:00:00 1 6 Sur 12 Sudeste 0 960.5 1.2 86
2019-03-21 06:00:00 0.1 6 Sudeste 10 Sudeste 0 960 0.2 82
2019-03-21 05:00:00 1.6 8 Este 12 Nordeste 0 959.7 -0.3 71
2019-03-21 04:00:00 2 6 Sur 9 Sudeste 0 959.3 -0.6 65
2019-03-21 03:00:00 3 5 Sudeste 13 Este 0 959.8 -0.2 59
2019-03-21 02:00:00 4.2 5 Sudeste 7 Sudeste 0 960 -0.2 52
2019-03-21 01:00:00 7.1 4 Este 9 Nordeste 0 959.9 -0.2 46
2019-03-21 00:00:00 8.6 6 Nordeste 9 Nordeste 0 960 0.2 46